createdAt,value
2019-04-11T00:02:18.571Z,16.67
2019-04-11T00:04:48.610Z,18.32
2019-04-11T00:07:18.635Z,19.20
2019-04-11T00:09:49.293Z,19.40
2019-04-11T00:12:19.638Z,20.30
2019-04-11T00:14:49.681Z,16.12
2019-04-11T00:17:19.817Z,15.75
2019-04-11T00:19:49.851Z,16.82
2019-04-11T00:22:21.482Z,18.30
2019-04-11T00:24:51.567Z,19.23
2019-04-11T00:27:21.718Z,19.73
2019-04-11T00:29:51.631Z,22.90
2019-04-11T00:32:21.874Z,20.85
2019-04-11T00:34:53.314Z,17.17
2019-04-11T00:37:23.484Z,17.42
2019-04-11T00:39:54.134Z,24.00
2019-04-11T00:44:53.283Z,24.65
2019-04-11T00:47:23.331Z,26.52
2019-04-11T00:49:53.358Z,27.15
2019-04-11T00:52:25.375Z,25.55
2019-04-11T00:54:55.565Z,27.73
2019-04-11T00:57:25.727Z,29.63
2019-04-11T00:59:56.505Z,31.77
2019-04-11T01:02:26.717Z,32.80
2019-04-11T01:04:57.106Z,32.15
2019-04-11T01:07:29.105Z,33.88
2019-04-11T01:09:59.184Z,34.65
2019-04-11T01:12:29.222Z,34.53
2019-04-11T01:14:59.445Z,34.20
2019-04-11T01:17:29.607Z,38.23
2019-04-11T01:19:59.735Z,34.25
2019-04-11T01:22:29.908Z,36.38
2019-04-11T01:24:59.942Z,36.48
2019-04-11T01:27:30.665Z,38.30
2019-04-11T01:30:00.606Z,38.25
2019-04-11T01:32:30.646Z,39.25
2019-04-11T01:35:01.297Z,43.40
2019-04-11T01:37:31.454Z,49.48
2019-04-11T01:40:02.428Z,53.48
2019-04-11T01:42:33.471Z,49.33
2019-04-11T01:45:03.886Z,45.20
2019-04-11T01:47:37.386Z,42.35
2019-04-11T01:50:08.428Z,43.10
2019-04-11T01:52:38.613Z,36.08
2019-04-11T01:55:08.648Z,37.53
2019-04-11T01:57:38.687Z,40.05
2019-04-11T02:00:12.223Z,47.25
2019-04-11T02:02:44.406Z,46.53
2019-04-11T02:05:16.727Z,40.52
2019-04-11T02:07:46.982Z,37.75
2019-04-11T02:10:17.039Z,30.75
2019-04-11T02:12:47.688Z,33.88
2019-04-11T02:15:17.735Z,36.42
2019-04-11T02:17:48.779Z,33.20
2019-04-11T02:20:18.935Z,33.95
2019-04-11T02:22:50.815Z,31.30
2019-04-11T02:25:28.731Z,29.57
2019-04-11T02:28:00.610Z,30.35
2019-04-11T02:30:31.352Z,30.45
2019-04-11T02:33:01.474Z,30.65
2019-04-11T02:35:31.727Z,33.75
2019-04-11T02:38:02.961Z,36.03
2019-04-11T02:40:33.247Z,31.73
2019-04-11T02:43:05.010Z,29.42
2019-04-11T02:45:45.396Z,29.90
2019-04-11T02:48:09.331Z,26.75
2019-04-11T02:50:40.655Z,26.52
2019-04-11T02:53:12.426Z,25.32
2019-04-11T02:55:43.806Z,25.12
2019-04-11T02:58:15.326Z,26.50
2019-04-11T03:00:45.656Z,25.30
2019-04-11T03:05:47.056Z,22.07
2019-04-11T03:08:19.795Z,22.73
2019-04-11T03:10:49.335Z,21.27
2019-04-11T03:13:21.105Z,20.08
2019-04-11T03:16:07.499Z,19.85
2019-04-11T03:18:40.711Z,20.08
2019-04-11T03:21:00.154Z,22.25
2019-04-11T03:23:27.849Z,21.97
2019-04-11T03:25:58.321Z,21.90
2019-04-11T03:28:31.386Z,21.60
2019-04-11T03:31:32.663Z,23.22
2019-04-11T03:37:00.689Z,21.23
2019-04-11T03:38:55.477Z,23.92
2019-04-11T03:41:23.514Z,22.48
2019-04-11T03:43:51.086Z,24.45
2019-04-11T03:46:30.851Z,23.50
2019-04-11T03:48:57.755Z,23.12
2019-04-11T03:51:17.973Z,22.75
2019-04-11T03:53:47.272Z,22.30
2019-04-11T03:56:19.926Z,21.80
2019-04-11T03:58:50.323Z,21.57
2019-04-11T04:01:22.640Z,20.55
2019-04-11T04:03:53.979Z,21.55
2019-04-11T04:06:25.525Z,20.27
2019-04-11T04:08:55.911Z,21.25
2019-04-11T04:11:27.510Z,22.35
2019-04-11T04:14:17.150Z,20.88
2019-04-11T04:16:54.860Z,21.07
2019-04-11T04:19:35.360Z,20.50
2019-04-11T04:22:14.187Z,21.50
2019-04-11T04:24:47.495Z,19.65
2019-04-11T04:27:19.848Z,19.65
2019-04-11T04:29:54.903Z,20.77
2019-04-11T04:32:23.038Z,22.25
2019-04-11T04:34:53.350Z,21.40
2019-04-11T04:37:24.840Z,22.70
2019-04-11T04:40:13.531Z,22.27
2019-04-11T04:42:35.911Z,36.03
2019-04-11T04:45:02.513Z,21.87
2019-04-11T04:47:42.668Z,21.30
2019-04-11T04:50:08.595Z,19.37
2019-04-11T04:52:38.924Z,22.13
2019-04-11T04:55:10.579Z,21.20
2019-04-11T04:57:42.888Z,22.73
2019-04-11T05:00:14.918Z,21.33
2019-04-11T05:02:47.903Z,20.30
2019-04-11T05:05:19.619Z,18.45
2019-04-11T05:07:49.937Z,18.57
2019-04-11T05:10:20.104Z,18.60
2019-04-11T05:12:51.428Z,18.70
2019-04-11T05:15:21.534Z,19.77
2019-04-11T05:17:51.473Z,19.87
2019-04-11T05:20:21.885Z,19.45
2019-04-11T05:25:22.255Z,19.90
2019-04-11T05:27:52.438Z,16.70
2019-04-11T05:30:23.123Z,17.32
2019-04-11T05:32:53.496Z,16.37
2019-04-11T05:35:23.457Z,15.10
2019-04-11T05:37:53.614Z,16.48
2019-04-11T05:40:24.016Z,15.88
2019-04-11T05:42:54.636Z,16.17
2019-04-11T05:45:26.466Z,17.42
2019-04-11T05:47:58.456Z,16.25
2019-04-11T05:50:32.046Z,16.85
2019-04-11T05:53:03.702Z,17.90
2019-04-11T05:55:36.361Z,21.97
2019-04-11T05:58:11.405Z,21.25
2019-04-11T06:00:46.744Z,21.60
2019-04-11T06:03:17.684Z,21.90
2019-04-11T06:05:49.915Z,21.50
2019-04-11T06:08:26.819Z,21.50
2019-04-11T06:11:14.574Z,17.55
2019-04-11T06:13:56.811Z,17.60
2019-04-11T06:16:38.911Z,18.75
2019-04-11T06:19:04.056Z,18.95
2019-04-11T06:21:36.003Z,18.00
2019-04-11T06:24:14.173Z,16.65
2019-04-11T06:26:46.966Z,15.90
2019-04-11T06:29:26.088Z,19.15
2019-04-11T06:32:11.768Z,19.95
2019-04-11T06:34:43.827Z,22.45
2019-04-11T06:37:19.295Z,23.57
2019-04-11T06:39:58.282Z,24.12
2019-04-11T06:42:30.267Z,25.40
2019-04-11T06:45:18.282Z,23.75
2019-04-11T06:48:02.068Z,24.63
2019-04-11T06:50:37.527Z,23.77
2019-04-11T06:53:08.877Z,24.90
2019-04-11T06:55:57.228Z,23.52
2019-04-11T06:58:29.758Z,24.05
2019-04-11T07:01:01.438Z,23.73
2019-04-11T07:03:34.095Z,25.00
2019-04-11T07:06:05.563Z,23.57
2019-04-11T07:08:40.603Z,22.45
2019-04-11T07:11:12.229Z,21.90
2019-04-11T07:13:43.792Z,20.30
2019-04-11T07:16:15.254Z,19.37
2019-04-11T07:18:47.015Z,18.40
2019-04-11T07:21:17.128Z,18.23
2019-04-11T07:24:05.428Z,16.87
2019-04-11T07:26:37.377Z,16.25
2019-04-11T07:29:24.149Z,16.65
2019-04-11T07:31:57.024Z,15.35
2019-04-11T07:34:45.747Z,14.25
2019-04-11T07:37:32.677Z,18.20
2019-04-11T07:40:13.454Z,17.25
2019-04-11T07:45:21.619Z,13.00
2019-04-11T07:47:53.174Z,11.93
2019-04-11T07:50:24.914Z,9.85
2019-04-11T07:53:06.747Z,10.45
2019-04-11T07:58:21.938Z,9.58
2019-04-11T08:01:10.375Z,11.43
2019-04-11T08:03:54.250Z,9.63
2019-04-11T08:06:42.898Z,10.63
2019-04-11T08:09:15.314Z,9.90
2019-04-11T08:11:50.031Z,9.53
2019-04-11T08:14:21.531Z,10.32
2019-04-11T08:17:03.670Z,9.60
2019-04-11T08:19:44.373Z,9.70
2019-04-11T08:22:16.926Z,8.68
2019-04-11T08:25:00.902Z,7.33
2019-04-11T08:27:33.514Z,7.67
2019-04-11T08:30:06.392Z,8.68
2019-04-11T08:32:56.616Z,7.45
2019-04-11T08:35:34.920Z,7.25
2019-04-11T08:38:12.419Z,7.65
2019-04-11T08:40:53.359Z,6.70
2019-04-11T08:43:28.915Z,7.83
2019-04-11T08:46:00.841Z,7.00
2019-04-11T08:48:33.035Z,6.72
2019-04-11T08:51:09.791Z,7.03
2019-04-11T08:53:44.862Z,5.53
2019-04-11T08:56:16.768Z,5.97
2019-04-11T08:59:33.636Z,5.17
2019-04-11T09:02:04.670Z,5.90
2019-04-11T09:05:03.258Z,6.95
2019-04-11T09:07:25.418Z,5.20
2019-04-11T09:10:07.425Z,4.53
2019-04-11T09:12:39.400Z,4.87
2019-04-11T09:15:26.662Z,4.53
2019-04-11T09:18:04.204Z,4.47
2019-04-11T09:20:34.071Z,4.05
2019-04-11T09:23:04.089Z,4.53
2019-04-11T09:25:45.524Z,4.65
2019-04-11T09:28:18.181Z,3.80
2019-04-11T09:30:56.981Z,4.45
2019-04-11T09:33:47.007Z,4.87
2019-04-11T09:36:33.901Z,4.50
2019-04-11T09:39:12.931Z,3.50
2019-04-11T09:42:00.976Z,3.42
2019-04-11T09:44:32.919Z,3.45
2019-04-11T09:47:13.718Z,4.03
2019-04-11T09:49:48.451Z,4.20
2019-04-11T09:52:26.985Z,4.12
2019-04-11T09:55:01.337Z,4.33
2019-04-11T09:57:34.656Z,3.60
2019-04-11T10:00:08.468Z,3.42
2019-04-11T10:02:58.862Z,3.50
2019-04-11T10:08:12.765Z,3.60
2019-04-11T10:10:47.386Z,3.83
2019-04-11T10:13:28.919Z,5.00
2019-04-11T10:16:17.975Z,3.95
2019-04-11T10:18:53.600Z,3.30
2019-04-11T10:21:25.951Z,3.50
2019-04-11T10:24:16.631Z,3.62
2019-04-11T10:27:06.750Z,3.27
2019-04-11T10:29:41.811Z,3.60
2019-04-11T10:32:13.589Z,3.70
2019-04-11T10:34:52.210Z,4.08
2019-04-11T10:37:23.475Z,3.47
2019-04-11T10:42:26.315Z,3.00
2019-04-11T10:45:14.383Z,3.25
2019-04-11T10:47:47.047Z,3.33
2019-04-11T10:50:21.990Z,3.77
2019-04-11T10:53:00.521Z,3.80
2019-04-11T10:55:32.294Z,3.83
2019-04-11T10:58:06.833Z,4.10
2019-04-11T11:00:41.476Z,4.00
2019-04-11T11:03:15.886Z,4.00
2019-04-11T11:05:47.471Z,3.40
2019-04-11T11:08:29.118Z,3.45
2019-04-11T11:11:00.743Z,3.10
2019-04-11T11:13:48.483Z,3.30
2019-04-11T11:16:20.270Z,3.65
2019-04-11T11:19:31.201Z,3.75
2019-04-11T11:21:39.914Z,3.72
2019-04-11T11:24:28.292Z,3.87
2019-04-11T11:27:02.546Z,3.42
2019-04-11T11:29:32.004Z,3.30
2019-04-11T11:32:05.022Z,3.10
2019-04-11T11:34:40.988Z,3.10
2019-04-11T11:37:29.021Z,3.00
2019-04-11T11:40:14.572Z,3.27
2019-04-11T11:42:47.451Z,2.98
2019-04-11T11:45:19.551Z,2.58
2019-04-11T11:47:55.307Z,3.27
2019-04-11T11:50:26.743Z,2.55
2019-04-11T11:53:04.816Z,2.87
2019-04-11T11:55:41.265Z,2.35
2019-04-11T11:58:29.939Z,2.85
2019-04-11T12:01:05.826Z,2.55
2019-04-11T12:03:46.782Z,2.02
2019-04-11T12:06:22.284Z,2.85
2019-04-11T12:08:51.571Z,2.52
2019-04-11T12:11:22.700Z,2.92
2019-04-11T12:14:00.399Z,2.50
2019-04-11T12:16:33.053Z,2.83
2019-04-11T12:19:22.167Z,2.70
2019-04-11T12:21:55.782Z,3.05
2019-04-11T12:24:29.161Z,3.33
2019-04-11T12:27:18.638Z,3.25
2019-04-11T12:30:08.682Z,3.50
2019-04-11T12:32:46.639Z,3.05
2019-04-11T12:35:36.038Z,3.62
2019-04-11T12:38:24.700Z,3.20
2019-04-11T12:41:14.993Z,2.92
2019-04-11T12:44:04.840Z,3.30
2019-04-11T12:46:52.786Z,3.70
2019-04-11T12:49:27.112Z,3.40
2019-04-11T12:52:15.117Z,3.45
2019-04-11T12:54:46.719Z,3.30
2019-04-11T12:57:34.867Z,3.33
2019-04-11T13:00:20.748Z,3.70
2019-04-11T13:03:01.319Z,4.28
2019-04-11T13:05:33.599Z,4.25
2019-04-11T13:08:21.753Z,3.00
2019-04-11T13:10:51.793Z,3.08
2019-04-11T13:13:29.498Z,3.67
2019-04-11T13:16:12.471Z,3.33
2019-04-11T13:18:46.546Z,3.08
2019-04-11T13:21:27.217Z,2.98
2019-04-11T13:23:58.789Z,3.20
2019-04-11T13:26:36.589Z,3.20
2019-04-11T13:29:29.251Z,2.75
2019-04-11T13:32:07.156Z,3.35
2019-04-11T13:34:38.832Z,3.30
2019-04-11T13:37:16.443Z,3.87
2019-04-11T13:39:48.002Z,3.52
2019-04-11T13:42:22.636Z,3.80
2019-04-11T13:44:52.674Z,3.45
2019-04-11T13:47:40.711Z,3.17
2019-04-11T13:50:16.759Z,3.15
2019-04-11T13:53:00.424Z,3.08
2019-04-11T13:55:30.770Z,3.27
2019-04-11T13:58:02.339Z,5.12
2019-04-11T14:00:39.741Z,3.62
2019-04-11T14:03:26.639Z,3.37
2019-04-11T14:05:58.255Z,4.05
2019-04-11T14:08:41.871Z,4.62
2019-04-11T14:11:19.677Z,4.20
2019-04-11T14:13:49.455Z,4.10
2019-04-11T14:16:23.641Z,4.22
2019-04-11T14:19:12.416Z,4.22
2019-04-11T14:21:44.265Z,4.90
2019-04-11T14:24:24.845Z,5.40
2019-04-11T14:27:02.539Z,6.67
2019-04-11T14:29:34.126Z,5.37
2019-04-11T14:32:14.652Z,5.50
2019-04-11T14:35:04.769Z,5.17
2019-04-11T14:37:38.417Z,5.20
2019-04-11T14:40:26.004Z,5.80
2019-04-11T14:43:16.157Z,10.38
2019-04-11T14:45:53.090Z,5.80
2019-04-11T14:48:42.655Z,5.40
2019-04-11T14:51:26.200Z,5.07
2019-04-11T14:54:11.794Z,5.05
2019-04-11T14:56:47.978Z,5.30
2019-04-11T14:59:35.907Z,5.45
2019-04-11T15:02:07.574Z,5.45
2019-04-11T15:04:39.121Z,5.70
2019-04-11T15:07:10.037Z,5.20
2019-04-11T15:09:46.484Z,4.90
2019-04-11T15:12:20.593Z,5.40
2019-04-11T15:14:52.164Z,5.17
2019-04-11T15:17:33.047Z,5.03
2019-04-11T15:20:07.490Z,4.20
2019-04-11T15:22:45.087Z,6.92
2019-04-11T15:25:19.521Z,6.47
2019-04-11T15:28:03.173Z,8.43
2019-04-11T15:30:53.043Z,5.85
2019-04-11T15:33:40.873Z,6.62
2019-04-11T15:36:12.449Z,6.72
2019-04-11T15:39:00.185Z,6.65
2019-04-11T15:41:31.846Z,8.53
2019-04-11T15:44:21.618Z,8.13
2019-04-11T15:46:51.550Z,9.28
2019-04-11T15:49:30.213Z,11.08
2019-04-11T15:51:56.440Z,9.48
2019-04-11T15:54:44.487Z,9.70
2019-04-11T15:57:16.148Z,12.25
2019-04-11T15:59:47.713Z,11.18
2019-04-11T16:02:37.797Z,11.63
2019-04-11T16:05:31.465Z,11.50
2019-04-11T16:08:19.419Z,12.10
2019-04-11T16:10:54.174Z,13.05
2019-04-11T16:13:25.843Z,20.00
2019-04-11T16:16:05.220Z,28.05
2019-04-11T16:18:47.128Z,14.78
2019-04-11T16:21:24.263Z,15.68
2019-04-11T16:23:56.969Z,20.30
2019-04-11T16:26:43.865Z,16.25
2019-04-11T16:29:18.203Z,17.02
2019-04-11T16:31:48.125Z,15.43
2019-04-11T16:34:31.669Z,15.83
2019-04-11T16:37:01.601Z,18.85
2019-04-11T16:39:54.854Z,16.80
2019-04-11T16:42:24.818Z,16.40
2019-04-11T16:45:12.418Z,16.82
2019-04-11T16:47:43.956Z,17.32
2019-04-11T16:50:14.109Z,20.02
2019-04-11T16:52:44.072Z,19.70
2019-04-11T16:55:14.218Z,19.40
2019-04-11T16:57:45.493Z,19.80
2019-04-11T17:00:20.259Z,20.57
2019-04-11T17:02:47.387Z,25.55
2019-04-11T17:05:17.501Z,26.30
2019-04-11T17:08:01.063Z,32.00
2019-04-11T17:10:49.541Z,28.55
2019-04-11T17:13:19.548Z,28.30
2019-04-11T17:15:49.591Z,27.62
2019-04-11T17:18:19.637Z,27.42
2019-04-11T17:20:49.790Z,35.20
2019-04-11T17:23:19.896Z,36.70
2019-04-11T17:25:53.097Z,42.15
2019-04-11T17:28:23.121Z,35.35
2019-04-11T17:30:55.701Z,32.53
2019-04-11T17:33:27.754Z,25.50
2019-04-11T17:35:56.831Z,27.95
2019-04-11T17:38:26.988Z,29.52
2019-04-11T17:40:56.974Z,45.20
2019-04-11T17:43:27.255Z,38.55
2019-04-11T17:45:57.734Z,45.12
2019-04-11T17:50:57.184Z,52.20
2019-04-11T17:53:27.206Z,55.65
2019-04-11T17:55:57.371Z,48.42
2019-04-11T17:58:27.907Z,41.45
2019-04-11T18:01:00.539Z,37.78
2019-04-11T18:03:30.926Z,39.50
2019-04-11T18:06:01.242Z,40.33
2019-04-11T18:08:32.226Z,49.67
2019-04-11T18:11:03.697Z,57.33
2019-04-11T18:13:39.566Z,65.57
2019-04-11T18:16:09.903Z,72.03
2019-04-11T18:18:40.146Z,66.97
2019-04-11T18:21:10.291Z,65.75
2019-04-11T18:23:42.498Z,59.35
2019-04-11T18:26:12.446Z,46.08
2019-04-11T18:28:43.968Z,52.85
2019-04-11T18:31:13.915Z,52.27
2019-04-11T18:33:43.945Z,40.52
2019-04-11T18:36:13.926Z,37.85
2019-04-11T18:38:44.586Z,33.73
2019-04-11T18:41:14.990Z,36.42
2019-04-11T18:43:47.106Z,35.08
2019-04-11T18:46:17.194Z,28.67
2019-04-11T18:48:47.445Z,31.77
2019-04-11T18:51:17.505Z,30.57
2019-04-11T18:53:47.512Z,32.17
2019-04-11T18:56:17.553Z,37.85
2019-04-11T18:58:47.689Z,36.08
2019-04-11T19:01:19.686Z,36.13
2019-04-11T19:03:49.724Z,41.68
2019-04-11T19:06:27.764Z,40.55
2019-04-11T19:08:51.544Z,35.20
2019-04-11T19:11:21.655Z,35.15
2019-04-11T19:13:51.709Z,35.63
2019-04-11T19:16:21.742Z,31.82
2019-04-11T19:18:51.773Z,30.75
2019-04-11T19:21:22.234Z,33.58
2019-04-11T19:23:52.252Z,35.98
2019-04-11T19:26:22.925Z,38.83
2019-04-11T19:28:55.206Z,39.63
2019-04-11T19:31:28.443Z,39.73
2019-04-11T19:34:04.314Z,52.58
2019-04-11T19:36:32.354Z,55.67
2019-04-11T19:39:02.300Z,60.17
2019-04-11T19:41:34.067Z,56.58
2019-04-11T19:44:04.824Z,44.60
2019-04-11T19:46:35.481Z,44.67
2019-04-11T19:51:34.728Z,42.43
2019-04-11T19:54:04.773Z,39.75
2019-04-11T19:56:42.370Z,39.83
2019-04-11T19:59:12.408Z,38.23
2019-04-11T20:01:42.443Z,33.65
2019-04-11T20:04:12.479Z,34.15
2019-04-11T20:06:43.197Z,37.63
2019-04-11T20:09:13.379Z,34.40
2019-04-11T20:11:44.870Z,36.42
2019-04-11T20:14:15.088Z,39.75
2019-04-11T20:16:48.883Z,40.08
2019-04-11T20:19:18.038Z,40.00
2019-04-11T20:21:48.018Z,46.77
2019-04-11T20:24:18.313Z,38.65
2019-04-11T20:26:50.293Z,51.58
2019-04-11T20:29:21.435Z,53.30
2019-04-11T20:31:51.585Z,60.10
2019-04-11T20:34:27.633Z,52.73
2019-04-11T20:36:54.832Z,35.33
2019-04-11T20:39:24.875Z,40.35
2019-04-11T20:41:56.333Z,36.98
2019-04-11T20:44:28.096Z,41.58
2019-04-11T20:47:00.488Z,41.88
2019-04-11T20:49:30.020Z,35.35
2019-04-11T20:52:00.001Z,42.40
2019-04-11T20:54:30.511Z,40.25
2019-04-11T20:57:00.439Z,37.42
2019-04-11T20:59:34.884Z,37.75
2019-04-11T21:02:02.063Z,31.93
2019-04-11T21:04:32.043Z,58.00
2019-04-11T21:07:02.659Z,36.08
2019-04-11T21:12:04.971Z,29.37
2019-04-11T21:14:35.008Z,41.77
2019-04-11T21:17:05.038Z,45.83
2019-04-11T21:19:35.071Z,41.02
2019-04-11T21:22:05.003Z,47.38
2019-04-11T21:24:35.043Z,40.45
2019-04-11T21:27:05.294Z,38.25
2019-04-11T21:29:35.325Z,32.13
2019-04-11T21:32:05.975Z,40.23
2019-04-11T21:37:05.330Z,40.20
2019-04-11T21:39:35.270Z,26.52
2019-04-11T21:42:06.127Z,22.15
2019-04-11T21:44:36.911Z,24.50
2019-04-11T21:47:07.358Z,23.85
2019-04-11T21:49:37.969Z,22.98
2019-04-11T21:52:12.048Z,31.87
2019-04-11T21:54:39.786Z,41.35
2019-04-11T21:57:09.833Z,47.03
2019-04-11T21:59:40.063Z,45.55
2019-04-11T22:02:12.403Z,37.20
2019-04-11T22:04:43.493Z,34.48
2019-04-11T22:07:14.582Z,36.93
2019-04-11T22:09:44.607Z,21.33
2019-04-11T22:12:14.649Z,18.48
2019-04-11T22:14:44.687Z,17.27
2019-04-11T22:17:15.836Z,19.35
2019-04-11T22:19:46.562Z,16.52
2019-04-11T22:22:16.634Z,15.70
2019-04-11T22:24:46.596Z,15.15
2019-04-11T22:27:16.609Z,15.45
2019-04-11T22:29:46.526Z,17.02
2019-04-11T22:32:16.685Z,22.70
2019-04-11T22:34:47.330Z,27.90
2019-04-11T22:39:46.492Z,20.95
2019-04-11T22:42:16.654Z,20.30
2019-04-11T22:44:48.190Z,23.25
2019-04-11T22:47:18.089Z,22.25
2019-04-11T22:49:48.062Z,22.20
2019-04-11T22:52:19.225Z,23.90
2019-04-11T22:54:49.257Z,24.10
2019-04-11T22:57:19.312Z,22.20
2019-04-11T22:59:49.330Z,23.87
2019-04-11T23:02:26.846Z,21.77
2019-04-11T23:04:56.768Z,22.25
2019-04-11T23:07:26.697Z,22.70
2019-04-11T23:09:56.743Z,22.87
2019-04-11T23:12:26.776Z,19.70
2019-04-11T23:14:57.743Z,17.00
2019-04-11T23:17:27.669Z,16.40
2019-04-11T23:19:57.602Z,17.32
2019-04-11T23:22:27.645Z,16.60
2019-04-11T23:24:57.468Z,16.67
2019-04-11T23:27:27.427Z,17.00
2019-04-11T23:29:57.361Z,17.87
2019-04-11T23:32:27.375Z,16.55
2019-04-11T23:34:57.313Z,17.77
2019-04-11T23:37:27.258Z,17.65
2019-04-11T23:39:57.236Z,17.75
2019-04-11T23:42:28.342Z,19.20
2019-04-11T23:44:58.385Z,20.10
2019-04-11T23:47:28.321Z,19.17
2019-04-11T23:49:58.355Z,18.17
2019-04-11T23:52:28.409Z,18.30
2019-04-11T23:55:00.570Z,18.20
2019-04-11T23:57:31.278Z,17.30
